createdAt,value
2023-01-18T00:00:34.371Z,92.84
2023-01-18T00:03:02.482Z,92.67
2023-01-18T00:05:31.031Z,92.85
2023-01-18T00:07:59.114Z,92.66
2023-01-18T00:10:28.779Z,92.64
2023-01-18T00:12:57.267Z,92.84
2023-01-18T00:15:25.599Z,92.78
2023-01-18T00:17:53.651Z,92.69
2023-01-18T00:20:24.010Z,92.81
2023-01-18T00:22:52.688Z,92.84
2023-01-18T00:25:21.837Z,92.99
2023-01-18T00:27:53.329Z,92.90
2023-01-18T00:30:23.617Z,93.05
2023-01-18T00:32:55.193Z,92.94
2023-01-18T00:35:23.686Z,93.07
2023-01-18T00:37:52.659Z,92.99
2023-01-18T00:40:21.516Z,92.95
2023-01-18T00:43:08.667Z,92.95
2023-01-18T00:45:36.792Z,92.99
2023-01-18T00:48:05.128Z,92.80
2023-01-18T00:50:33.225Z,92.97
2023-01-18T00:53:01.289Z,92.67
2023-01-18T00:55:29.423Z,92.94
2023-01-18T00:57:58.866Z,92.88
2023-01-18T01:00:27.724Z,92.79
2023-01-18T01:02:56.659Z,92.80
2023-01-18T01:05:44.206Z,92.74
2023-01-18T01:08:17.006Z,92.80
2023-01-18T01:10:46.640Z,92.67
2023-01-18T01:13:35.022Z,92.61
2023-01-18T01:16:23.727Z,92.46
2023-01-18T01:19:10.093Z,92.58
2023-01-18T01:21:55.942Z,92.53
2023-01-18T01:24:41.576Z,92.60
2023-01-18T01:27:10.692Z,92.66
2023-01-18T01:29:40.199Z,92.34
2023-01-18T01:32:08.302Z,92.42
2023-01-18T01:34:36.744Z,92.30
2023-01-18T01:37:05.471Z,92.32
2023-01-18T01:39:33.553Z,92.57
2023-01-18T01:42:01.667Z,92.64
2023-01-18T01:44:52.138Z,92.71
2023-01-18T01:47:42.369Z,92.72
2023-01-18T01:50:16.933Z,92.73
2023-01-18T01:52:46.171Z,92.54
2023-01-18T01:55:18.569Z,92.59
2023-01-18T01:57:50.589Z,92.67
2023-01-18T02:00:23.113Z,92.65
2023-01-18T02:02:54.468Z,92.63
2023-01-18T02:05:22.994Z,92.64
2023-01-18T02:07:51.639Z,92.46
2023-01-18T02:10:19.861Z,92.44
2023-01-18T02:12:50.218Z,92.39
2023-01-18T02:15:20.192Z,92.42
2023-01-18T02:18:16.096Z,92.63
2023-01-18T02:21:13.460Z,92.46
2023-01-18T02:24:09.988Z,92.53
2023-01-18T02:27:02.075Z,92.37
2023-01-18T02:30:07.883Z,92.44
2023-01-18T02:32:56.389Z,92.57
2023-01-18T02:35:33.523Z,92.50
2023-01-18T02:38:07.891Z,92.56
2023-01-18T02:40:44.395Z,92.54
2023-01-18T02:43:31.726Z,92.61
2023-01-18T02:46:21.862Z,92.63
2023-01-18T02:48:50.397Z,92.56
2023-01-18T02:51:18.475Z,92.67
2023-01-18T02:53:48.000Z,92.51
2023-01-18T02:56:19.332Z,92.78
2023-01-18T02:58:49.005Z,92.74
2023-01-18T03:01:22.364Z,92.78
2023-01-18T03:03:51.708Z,92.82
2023-01-18T03:06:22.181Z,92.91
2023-01-18T03:08:52.520Z,92.89
2023-01-18T03:11:27.970Z,92.95
2023-01-18T03:14:02.831Z,93.16
2023-01-18T03:16:41.265Z,93.08
2023-01-18T03:19:32.867Z,93.09
2023-01-18T03:22:02.541Z,93.21
2023-01-18T03:24:30.508Z,93.18
2023-01-18T03:27:18.317Z,93.16
2023-01-18T03:30:04.354Z,93.08
2023-01-18T03:32:52.175Z,93.01
2023-01-18T03:35:26.669Z,93.00
2023-01-18T03:37:56.193Z,93.00
2023-01-18T03:40:28.620Z,92.79
2023-01-18T03:43:02.256Z,93.00
2023-01-18T03:45:33.800Z,93.00
2023-01-18T03:48:03.675Z,93.13
2023-01-18T03:50:46.082Z,93.26
2023-01-18T03:53:16.957Z,93.20
2023-01-18T03:55:48.847Z,93.47
2023-01-18T03:58:21.101Z,93.60
2023-01-18T04:00:49.263Z,93.80
2023-01-18T04:03:18.724Z,93.67
2023-01-18T04:05:46.860Z,93.89
2023-01-18T04:08:16.388Z,93.75
2023-01-18T04:10:44.470Z,94.01
2023-01-18T04:13:15.262Z,93.88
2023-01-18T04:15:43.452Z,93.65
2023-01-18T04:18:11.580Z,93.74
2023-01-18T04:20:41.198Z,93.67
2023-01-18T04:23:09.290Z,93.81
2023-01-18T04:25:38.393Z,93.76
2023-01-18T04:28:06.472Z,93.85
2023-01-18T04:30:34.532Z,93.95
2023-01-18T04:33:02.682Z,94.32
2023-01-18T04:35:30.755Z,94.11
2023-01-18T04:38:00.339Z,94.10
2023-01-18T04:40:28.423Z,94.21
2023-01-18T04:42:56.765Z,94.04
2023-01-18T04:45:25.162Z,94.32
2023-01-18T04:47:53.235Z,94.18
2023-01-18T04:50:21.306Z,94.12
2023-01-18T04:52:49.368Z,94.28
2023-01-18T04:55:18.852Z,94.10
2023-01-18T04:57:46.908Z,94.04
2023-01-18T05:00:15.841Z,94.07
2023-01-18T05:02:43.969Z,93.84
2023-01-18T05:05:14.950Z,93.94
2023-01-18T05:07:43.055Z,93.83
2023-01-18T05:10:12.286Z,93.86
2023-01-18T05:12:41.735Z,93.59
2023-01-18T05:15:11.119Z,93.29
2023-01-18T05:17:39.211Z,93.09
2023-01-18T05:20:09.786Z,92.96
2023-01-18T05:22:38.021Z,92.95
2023-01-18T05:25:06.990Z,93.09
2023-01-18T05:27:35.257Z,93.11
2023-01-18T05:30:06.783Z,93.06
2023-01-18T05:32:36.025Z,93.01
2023-01-18T05:35:04.100Z,92.59
2023-01-18T05:37:32.333Z,92.62
2023-01-18T05:40:00.408Z,92.70
2023-01-18T05:42:28.566Z,92.59
2023-01-18T05:44:56.640Z,92.70
2023-01-18T05:47:26.105Z,92.25
2023-01-18T05:49:54.176Z,92.55
2023-01-18T05:52:23.027Z,92.53
2023-01-18T05:54:51.225Z,92.65
2023-01-18T05:57:19.276Z,92.63
2023-01-18T05:59:47.381Z,92.66
2023-01-18T06:02:15.498Z,92.70
2023-01-18T06:04:45.305Z,92.73
2023-01-18T06:07:13.969Z,92.70
2023-01-18T06:09:43.004Z,92.66
2023-01-18T06:12:11.317Z,92.81
2023-01-18T06:14:39.411Z,92.86
2023-01-18T06:17:08.907Z,92.63
2023-01-18T06:19:37.119Z,92.52
2023-01-18T06:22:06.686Z,92.56
2023-01-18T06:24:34.759Z,92.62
2023-01-18T06:27:04.142Z,92.63
2023-01-18T06:29:32.397Z,92.80
2023-01-18T06:32:00.617Z,92.82
2023-01-18T06:34:30.344Z,92.79
2023-01-18T06:36:58.666Z,92.97
2023-01-18T06:39:28.160Z,92.64
2023-01-18T06:41:56.297Z,92.76
2023-01-18T06:44:24.447Z,92.83
2023-01-18T06:46:52.727Z,92.59
2023-01-18T06:49:21.109Z,92.77
2023-01-18T06:51:49.169Z,92.81
2023-01-18T06:54:17.256Z,92.91
2023-01-18T06:56:48.228Z,92.89
2023-01-18T06:59:16.399Z,92.75
2023-01-18T07:01:45.896Z,92.69
2023-01-18T07:04:14.104Z,92.70
2023-01-18T07:06:44.487Z,92.61
2023-01-18T07:09:13.607Z,92.69
2023-01-18T07:11:43.375Z,92.46
2023-01-18T07:14:13.627Z,92.43
2023-01-18T07:16:42.110Z,92.29
2023-01-18T07:19:10.256Z,92.21
2023-01-18T07:21:38.325Z,92.27
2023-01-18T07:24:07.333Z,92.27
2023-01-18T07:26:35.449Z,92.28
2023-01-18T07:29:03.737Z,92.24
2023-01-18T07:31:33.292Z,92.21
2023-01-18T07:34:01.554Z,92.32
2023-01-18T07:36:29.643Z,92.39
2023-01-18T07:38:57.791Z,92.49
2023-01-18T07:41:26.258Z,92.25
2023-01-18T07:43:55.800Z,92.30
2023-01-18T07:46:26.007Z,92.30
2023-01-18T07:48:55.693Z,92.35
2023-01-18T07:51:24.148Z,92.34
2023-01-18T07:53:55.104Z,92.36
2023-01-18T07:56:25.291Z,92.25
2023-01-18T07:58:53.879Z,92.59
2023-01-18T08:01:23.759Z,92.55
2023-01-18T08:03:54.507Z,92.61
2023-01-18T08:06:26.023Z,92.56
2023-01-18T08:08:56.186Z,92.53
2023-01-18T08:11:24.527Z,92.57
2023-01-18T08:13:52.950Z,92.57
2023-01-18T08:16:21.383Z,92.46
2023-01-18T08:18:50.703Z,92.54
2023-01-18T08:21:18.794Z,92.69
2023-01-18T08:23:48.420Z,92.60
2023-01-18T08:26:16.608Z,92.64
2023-01-18T08:28:44.835Z,92.45
2023-01-18T08:31:14.987Z,92.43
2023-01-18T08:33:45.527Z,92.52
2023-01-18T08:36:15.465Z,92.57
2023-01-18T08:38:44.094Z,92.57
2023-01-18T08:41:13.576Z,92.75
2023-01-18T08:43:42.141Z,92.60
2023-01-18T08:46:10.312Z,92.59
2023-01-18T08:48:38.426Z,92.65
2023-01-18T08:51:06.899Z,92.60
2023-01-18T08:53:35.006Z,92.64
2023-01-18T08:56:06.759Z,92.65
2023-01-18T08:58:36.257Z,92.55
2023-01-18T09:01:06.684Z,92.53
2023-01-18T09:03:35.239Z,92.79
2023-01-18T09:06:04.553Z,92.73
2023-01-18T09:08:32.823Z,92.70
2023-01-18T09:11:03.352Z,92.74
2023-01-18T09:13:31.656Z,92.54
2023-01-18T09:16:01.853Z,92.74
2023-01-18T09:18:31.213Z,92.60
2023-01-18T09:20:59.472Z,92.65
2023-01-18T09:23:27.728Z,92.72
2023-01-18T09:26:05.331Z,92.61
2023-01-18T09:28:34.439Z,92.59
2023-01-18T09:31:05.283Z,92.68
2023-01-18T09:33:37.889Z,92.58
2023-01-18T09:36:09.936Z,92.53
2023-01-18T09:38:39.371Z,92.34
2023-01-18T09:41:09.129Z,92.37
2023-01-18T09:43:39.723Z,92.08
2023-01-18T09:46:15.285Z,92.05
2023-01-18T09:48:44.863Z,92.26
2023-01-18T09:51:20.502Z,92.42
2023-01-18T09:54:00.847Z,91.99
2023-01-18T09:56:32.044Z,92.18
2023-01-18T09:59:07.637Z,91.64
2023-01-18T10:01:39.046Z,91.77
2023-01-18T10:04:14.096Z,91.66
2023-01-18T10:06:48.551Z,90.81
2023-01-18T10:09:20.401Z,91.25
2023-01-18T10:11:55.198Z,91.05
2023-01-18T10:14:30.299Z,90.24
2023-01-18T10:17:03.604Z,89.94
2023-01-18T10:19:33.612Z,90.53
2023-01-18T10:22:06.976Z,90.23
2023-01-18T10:24:45.357Z,90.38
2023-01-18T10:27:48.537Z,90.27
2023-01-18T10:30:28.996Z,90.32
2023-01-18T10:33:01.843Z,90.03
2023-01-18T10:35:32.516Z,89.69
2023-01-18T10:38:04.865Z,89.89
2023-01-18T10:40:33.684Z,89.22
2023-01-18T10:43:04.305Z,89.20
2023-01-18T10:45:34.514Z,88.28
2023-01-18T10:48:24.621Z,88.88
2023-01-18T10:50:57.781Z,88.72
2023-01-18T10:53:31.150Z,89.07
2023-01-18T10:56:15.284Z,88.29
2023-01-18T10:58:46.403Z,88.31
2023-01-18T11:01:17.503Z,88.45
2023-01-18T11:03:49.607Z,88.45
2023-01-18T11:06:20.599Z,87.80
2023-01-18T11:08:50.155Z,86.92
2023-01-18T11:11:20.435Z,88.12
2023-01-18T11:13:50.242Z,88.73
2023-01-18T11:16:20.979Z,88.88
2023-01-18T11:19:02.997Z,87.84
2023-01-18T11:21:43.644Z,88.05
2023-01-18T11:24:16.169Z,88.25
2023-01-18T11:27:03.528Z,88.67
2023-01-18T11:29:34.314Z,88.43
2023-01-18T11:32:05.337Z,88.03
2023-01-18T11:34:37.057Z,88.22
2023-01-18T11:37:19.561Z,87.51
2023-01-18T11:39:47.744Z,86.83
2023-01-18T11:42:28.187Z,87.09
2023-01-18T11:45:07.545Z,87.24
2023-01-18T11:47:48.960Z,87.32
2023-01-18T11:50:28.254Z,85.92
2023-01-18T11:53:03.355Z,86.23
2023-01-18T11:55:34.788Z,87.44
2023-01-18T11:58:05.228Z,86.62
2023-01-18T12:00:43.572Z,86.83
2023-01-18T12:03:42.604Z,87.23
2023-01-18T12:06:21.629Z,87.29
2023-01-18T12:09:09.749Z,87.86
2023-01-18T12:12:18.148Z,87.20
2023-01-18T12:14:57.153Z,87.05
2023-01-18T12:17:36.041Z,87.21
2023-01-18T12:20:20.317Z,87.03
2023-01-18T12:23:28.050Z,87.13
2023-01-18T12:26:12.305Z,87.54
2023-01-18T12:28:52.560Z,87.13
2023-01-18T12:31:26.421Z,85.14
2023-01-18T12:34:00.171Z,85.80
2023-01-18T12:36:46.071Z,85.91
2023-01-18T12:39:26.449Z,86.07
2023-01-18T12:42:00.821Z,84.56
2023-01-18T12:44:48.337Z,85.63
2023-01-18T12:47:35.090Z,86.06
2023-01-18T12:50:08.752Z,84.05
2023-01-18T12:52:43.693Z,84.46
2023-01-18T12:55:21.210Z,85.50
2023-01-18T12:57:52.605Z,84.06
2023-01-18T13:00:24.493Z,84.30
2023-01-18T13:02:57.509Z,84.72
2023-01-18T13:05:35.153Z,84.88
2023-01-18T13:08:09.863Z,84.48
2023-01-18T13:10:39.762Z,84.94
2023-01-18T13:13:08.786Z,82.94
2023-01-18T13:15:44.588Z,84.23
2023-01-18T13:21:03.736Z,84.46
2023-01-18T13:23:39.946Z,83.56
2023-01-18T13:26:21.273Z,83.29
2023-01-18T13:28:49.428Z,82.71
2023-01-18T13:31:17.594Z,81.91
2023-01-18T13:33:46.662Z,81.66
2023-01-18T13:36:17.301Z,81.70
2023-01-18T13:38:51.228Z,82.87
2023-01-18T13:41:26.068Z,81.47
2023-01-18T13:44:03.833Z,82.70
2023-01-18T13:46:34.015Z,82.02
2023-01-18T13:49:36.077Z,81.08
2023-01-18T13:52:28.630Z,81.57
2023-01-18T13:55:06.021Z,83.30
2023-01-18T13:57:36.696Z,83.05
2023-01-18T14:00:07.456Z,83.46
2023-01-18T14:02:42.357Z,84.23
2023-01-18T14:05:25.294Z,83.28
2023-01-18T14:07:57.135Z,84.21
2023-01-18T14:10:31.826Z,84.07
2023-01-18T14:13:03.321Z,84.83
2023-01-18T14:15:46.609Z,85.10
2023-01-18T14:18:26.129Z,84.87
2023-01-18T14:21:12.636Z,84.67
2023-01-18T14:23:59.094Z,85.39
2023-01-18T14:26:29.113Z,84.66
2023-01-18T14:29:00.303Z,85.19
2023-01-18T14:31:31.406Z,83.79
2023-01-18T14:33:59.709Z,85.19
2023-01-18T14:36:29.722Z,85.82
2023-01-18T14:39:13.667Z,84.98
2023-01-18T14:41:43.406Z,85.98
2023-01-18T14:44:19.408Z,84.44
2023-01-18T14:46:51.360Z,85.43
2023-01-18T14:49:26.219Z,85.45
2023-01-18T14:51:54.828Z,85.17
2023-01-18T14:54:24.929Z,85.46
2023-01-18T14:57:01.186Z,85.54
2023-01-18T14:59:31.229Z,85.68
2023-01-18T15:02:00.818Z,85.92
2023-01-18T15:04:31.084Z,85.58
2023-01-18T15:07:02.068Z,85.53
2023-01-18T15:09:32.492Z,85.67
2023-01-18T15:12:02.708Z,85.83
2023-01-18T15:14:34.106Z,85.78
2023-01-18T15:17:03.463Z,85.71
2023-01-18T15:19:34.956Z,85.98
2023-01-18T15:22:04.304Z,86.05
2023-01-18T15:24:38.289Z,86.15
2023-01-18T15:27:06.937Z,85.94
2023-01-18T15:29:38.837Z,86.13
2023-01-18T15:32:12.228Z,86.01
2023-01-18T15:34:43.764Z,86.25
2023-01-18T15:37:15.864Z,86.70
2023-01-18T15:39:50.548Z,86.66
2023-01-18T15:42:18.710Z,86.27
2023-01-18T15:44:51.487Z,86.54
2023-01-18T15:47:25.196Z,86.25
2023-01-18T15:49:55.589Z,86.61
2023-01-18T15:52:38.878Z,86.25
2023-01-18T15:55:14.338Z,86.15
2023-01-18T15:57:43.402Z,86.49
2023-01-18T16:00:33.230Z,86.57
2023-01-18T16:03:03.647Z,86.80
2023-01-18T16:05:33.381Z,86.63
2023-01-18T16:08:18.218Z,86.49
2023-01-18T16:10:52.503Z,87.03
2023-01-18T16:13:38.497Z,86.89
2023-01-18T16:16:26.377Z,86.32
2023-01-18T16:19:03.867Z,86.70
2023-01-18T16:21:40.434Z,87.17
2023-01-18T16:24:31.546Z,87.20
2023-01-18T16:27:01.262Z,87.09
2023-01-18T16:29:29.403Z,87.30
2023-01-18T16:32:31.415Z,87.42
2023-01-18T16:35:01.107Z,87.26
2023-01-18T16:37:30.632Z,87.22
2023-01-18T16:39:58.722Z,87.45
2023-01-18T16:42:37.354Z,87.61
2023-01-18T16:45:13.485Z,87.74
2023-01-18T16:47:42.996Z,87.43
2023-01-18T16:50:15.569Z,87.74
2023-01-18T16:52:44.751Z,87.86
2023-01-18T16:55:13.668Z,87.80
2023-01-18T16:57:42.646Z,87.80
2023-01-18T17:00:18.735Z,87.78
2023-01-18T17:02:48.364Z,87.94
2023-01-18T17:05:17.082Z,87.95
2023-01-18T17:07:45.734Z,88.03
2023-01-18T17:10:20.658Z,88.04
2023-01-18T17:12:48.815Z,88.02
2023-01-18T17:15:19.260Z,88.11
2023-01-18T17:17:50.337Z,88.13
2023-01-18T17:20:20.886Z,87.94
2023-01-18T17:22:48.997Z,87.93
2023-01-18T17:25:17.182Z,88.15
2023-01-18T17:27:45.509Z,88.17
2023-01-18T17:30:16.978Z,88.19
2023-01-18T17:32:46.924Z,88.38
2023-01-18T17:35:18.988Z,88.25
2023-01-18T17:37:47.080Z,88.46
2023-01-18T17:40:23.415Z,88.74
2023-01-18T17:42:53.755Z,88.68
2023-01-18T17:45:22.259Z,88.67
2023-01-18T17:47:53.628Z,88.54
2023-01-18T17:50:25.033Z,88.62
2023-01-18T17:52:54.192Z,88.41
2023-01-18T17:55:34.324Z,88.60
2023-01-18T17:58:03.532Z,88.48
2023-01-18T18:00:31.635Z,88.59
2023-01-18T18:03:01.203Z,88.68
2023-01-18T18:05:31.509Z,88.38
2023-01-18T18:07:59.659Z,88.55
2023-01-18T18:10:27.803Z,88.64
2023-01-18T18:12:55.902Z,88.69
2023-01-18T18:15:24.176Z,88.74
2023-01-18T18:17:52.407Z,88.82
2023-01-18T18:20:22.130Z,88.77
2023-01-18T18:22:52.349Z,88.95
2023-01-18T18:25:20.445Z,88.86
2023-01-18T18:27:48.633Z,88.79
2023-01-18T18:30:18.546Z,88.85
2023-01-18T18:32:46.656Z,88.98
2023-01-18T18:35:24.909Z,89.06
2023-01-18T18:37:55.600Z,89.02
2023-01-18T18:40:24.566Z,89.00
2023-01-18T18:43:01.599Z,88.98
2023-01-18T18:45:31.427Z,89.03
2023-01-18T18:47:59.837Z,89.05
2023-01-18T18:50:28.604Z,89.03
2023-01-18T18:52:59.097Z,89.06
2023-01-18T18:55:27.445Z,89.05
2023-01-18T18:57:55.515Z,88.96
2023-01-18T19:00:25.087Z,88.80
2023-01-18T19:02:57.894Z,88.92
2023-01-18T19:05:26.021Z,88.89
2023-01-18T19:07:54.111Z,89.08
2023-01-18T19:10:27.003Z,89.03
2023-01-18T19:12:55.661Z,88.91
2023-01-18T19:15:24.310Z,88.87
2023-01-18T19:17:53.678Z,89.00
2023-01-18T19:20:22.081Z,89.10
2023-01-18T19:22:50.939Z,89.05
2023-01-18T19:25:19.142Z,89.20
2023-01-18T19:27:48.679Z,89.24
2023-01-18T19:30:20.156Z,89.24
2023-01-18T19:32:49.244Z,89.33
2023-01-18T19:35:18.011Z,89.10
2023-01-18T19:37:46.852Z,89.34
2023-01-18T19:40:15.740Z,89.27
2023-01-18T19:42:44.429Z,89.32
2023-01-18T19:45:22.963Z,89.22
2023-01-18T19:47:55.507Z,89.24
2023-01-18T19:50:23.858Z,89.31
2023-01-18T19:52:52.140Z,89.31
2023-01-18T19:55:21.595Z,89.35
2023-01-18T19:57:51.048Z,89.24
2023-01-18T20:00:21.769Z,89.34
2023-01-18T20:02:49.906Z,89.28
2023-01-18T20:05:18.109Z,89.35
2023-01-18T20:07:46.184Z,89.34
2023-01-18T20:10:14.255Z,89.30
2023-01-18T20:12:42.422Z,89.32
2023-01-18T20:15:10.868Z,89.43
2023-01-18T20:17:40.517Z,89.52
2023-01-18T20:20:12.662Z,89.55
2023-01-18T20:22:40.804Z,89.26
2023-01-18T20:25:10.511Z,89.51
2023-01-18T20:27:38.688Z,89.60
2023-01-18T20:30:07.966Z,89.60
2023-01-18T20:32:36.073Z,89.55
2023-01-18T20:35:06.098Z,89.56
2023-01-18T20:37:34.447Z,89.68
2023-01-18T20:40:02.766Z,89.51
2023-01-18T20:42:30.869Z,89.48
2023-01-18T20:45:00.527Z,89.56
2023-01-18T20:47:28.708Z,89.39
2023-01-18T20:49:56.973Z,89.46
2023-01-18T20:52:26.464Z,89.54
2023-01-18T20:54:54.807Z,89.56
2023-01-18T20:57:24.027Z,89.40
2023-01-18T20:59:52.139Z,89.46
2023-01-18T21:02:20.403Z,89.59
2023-01-18T21:04:48.518Z,89.42
2023-01-18T21:07:16.589Z,89.62
2023-01-18T21:09:47.187Z,89.40
2023-01-18T21:12:15.269Z,89.55
2023-01-18T21:14:43.358Z,89.43
2023-01-18T21:17:11.483Z,89.51
2023-01-18T21:19:39.580Z,89.45
2023-01-18T21:22:07.739Z,89.33
2023-01-18T21:24:36.046Z,89.45
2023-01-18T21:27:05.627Z,89.37
2023-01-18T21:29:34.077Z,89.44
2023-01-18T21:32:02.511Z,89.46
2023-01-18T21:34:30.646Z,89.46
2023-01-18T21:36:59.000Z,89.47
2023-01-18T21:39:28.443Z,89.38
2023-01-18T21:42:13.992Z,89.49
2023-01-18T21:45:00.889Z,89.56
2023-01-18T21:47:29.018Z,89.59
2023-01-18T21:50:17.855Z,89.55
2023-01-18T21:53:04.154Z,89.60
2023-01-18T21:55:32.571Z,89.58
2023-01-18T21:58:17.895Z,89.74
2023-01-18T22:00:47.382Z,89.59
2023-01-18T22:03:18.414Z,89.59
2023-01-18T22:05:46.808Z,89.77
2023-01-18T22:08:15.004Z,89.70
2023-01-18T22:10:46.708Z,89.91
2023-01-18T22:13:14.846Z,89.65
2023-01-18T22:15:42.986Z,89.89
2023-01-18T22:18:12.564Z,89.74
2023-01-18T22:20:40.633Z,89.79
2023-01-18T22:23:08.738Z,89.83
2023-01-18T22:25:36.835Z,90.00
2023-01-18T22:28:05.107Z,90.12
2023-01-18T22:30:33.259Z,89.92
2023-01-18T22:33:01.447Z,90.12
2023-01-18T22:35:31.588Z,90.15
2023-01-18T22:37:59.889Z,90.08
2023-01-18T22:40:28.170Z,89.87
2023-01-18T22:42:56.887Z,90.28
2023-01-18T22:45:25.153Z,90.44
2023-01-18T22:47:53.240Z,90.67
2023-01-18T22:50:21.502Z,91.63
2023-01-18T22:52:51.242Z,91.16
2023-01-18T22:55:19.326Z,90.93
2023-01-18T22:57:47.450Z,92.05
2023-01-18T23:00:16.517Z,91.91
2023-01-18T23:02:44.629Z,92.05
2023-01-18T23:05:12.942Z,92.50
2023-01-18T23:07:41.003Z,92.32
2023-01-18T23:10:11.515Z,92.45
2023-01-18T23:12:39.591Z,92.28
2023-01-18T23:15:25.917Z,92.68
2023-01-18T23:17:53.995Z,93.19
2023-01-18T23:20:23.496Z,92.61
2023-01-18T23:22:51.593Z,92.95
2023-01-18T23:25:21.366Z,93.94
2023-01-18T23:27:49.489Z,93.24
2023-01-18T23:30:17.642Z,94.08
2023-01-18T23:32:45.818Z,92.95
2023-01-18T23:35:13.929Z,92.51
2023-01-18T23:37:42.085Z,93.01
2023-01-18T23:40:28.982Z,93.25
2023-01-18T23:43:15.949Z,92.32
2023-01-18T23:46:01.828Z,92.83
2023-01-18T23:48:47.739Z,93.28
2023-01-18T23:51:33.431Z,93.33
2023-01-18T23:54:19.788Z,93.20
2023-01-18T23:56:48.557Z,93.97
2023-01-18T23:59:17.997Z,93.34
